John F Kennedy International Airport
KJFK : now visible

Aeroporto :











RITROVATECI SU...

 
LOGIN :

Iscrizione | Disclaimer

   EN    FR    IT 

 









Sommario :    VFR   VFR Marginale   IFR   IFR Intensivo   IFR Molto Intensivo
Visibilità : 
Base nubi : 
>= 8 km
>= 3000ft
5 / 8 km
1000 / 3000 ft
1500m / 5 km
500 / 1000 ft
800 / 1500m
200 / 500 ft
< 800m
< 200 ft
Simboli :   Temporali  Nebbia  Neve Forte  Precipitazioni Forti  Vento > 20 kt







- Altitudine del aeroporto : 13 ft
- Codice IATA : JFK


KJFK - John F Kennedy International

ULTIMO METAR :
  • 182251Z 02011KT 10SM BKN011 OVC036 25/24 A2988 RMK AO2 SLP117 T02500244

METARs OBSOLETI :
  • 182230Z 03008KT 10SM BKN011 BKN036 OVC045 26/25 A2987 RMK AO2 T02610250
  • 182151Z 16008KT 10SM SCT015 SCT031 BKN042 BKN250 27/25 A2988 RMK AO2 LTG DSNT NE SLP117 T02670250
  • 182051Z 15006KT 10SM SCT023 BKN039 BKN110 BKN250 28/25 A2986 RMK AO2 LTG DSNT SW SLP112 VCSH N T02830250 56010

TAF KJFK
Valido dal 18 a 21 ore il 20 a 00 ore UTC


182129Z 1821/1924 16007KT P6SM VCTS FEW015 BKN035CB
FM190000 06008KT P6SM VCSH BKN025
FM190500 05004KT 6SM BR BKN015
FM191500 25006KT P6SM SCT015 SCT250
FM192100 20012KT P6SM SCT250
FIR KZNY / America del Nord



MetMap, La meteo Aeronautica in un colpo d'occhio ! - Copyright ORBIFLY Dicembre 2007 - Disclaimer

ORBIFLY MET'MAP TEAM :

Programmazione e sviluppo : Alexandra Zaïnal
Concezione e sviluppo : Baudouin d'Aumeries
Co-Programmazione e sviluppo : Marc-Olivier Méhu
Supporto tecnico e logistico : Manuel Goepfert
Aiuto per la traduzione : Arnaldo La Scala

Contatto : metmap@orbifly.com




FONTI E CREDITI :

   NOAA       Earth
Advisory